Time;durP1;ratioP1;P1;durP2;ratioP2;P2;SDS_P1;SDS_P2;PMS_P1;PMS_P2;Temp;Humidity;BMP_temperature;BMP_pressure;BME280_temperature;BME280_humidity;BME280_pressure;Samples;Min_cycle;Max_cycle;Signal;HPM_P1;HPM_P2
2021/01/30 00:00:26;;;;;;;13.70;5.07;;;;;;;2.69;88.50;100319.13;5037097;28;20033;-82
2021/01/30 00:02:54;;;;;;;12.53;5.40;;;;;;;2.65;88.22;100311.31;5040251;28;20083;-83
2021/01/30 00:05:23;;;;;;;14.33;5.77;;;;;;;2.66;89.07;100323.19;5039933;28;20025;-82
2021/01/30 00:07:52;;;;;;;13.27;5.63;;;;;;;2.63;88.91;100330.66;5036776;28;20547;-82
2021/01/30 00:10:18;;;;;;;11.57;6.30;;;;;;;2.61;88.85;100334.78;5037072;28;20025;-81
2021/01/30 00:12:48;;;;;;;13.87;6.87;;;;;;;2.63;89.67;100328.09;5035227;28;20053;-82
2021/01/30 00:15:17;;;;;;;14.40;6.53;;;;;;;2.63;89.80;100331.50;5038041;28;20025;-82
2021/01/30 00:17:43;;;;;;;12.17;6.33;;;;;;;2.61;88.18;100335.66;5037144;28;20036;-81
2021/01/30 00:20:17;;;;;;;10.85;5.75;;;;;;;2.65;88.69;100334.13;5037031;28;20025;-82
2021/01/30 00:22:42;;;;;;;14.23;5.80;;;;;;;2.61;89.62;100343.25;5035500;28;20028;-85
2021/01/30 00:25:11;;;;;;;9.98;5.50;;;;;;;2.50;88.58;100340.19;5036718;28;20033;-81
2021/01/30 00:27:36;;;;;;;11.80;4.50;;;;;;;2.46;88.43;100330.69;5038136;28;20029;-81
2021/01/30 00:30:08;;;;;;;13.23;5.40;;;;;;;2.37;88.36;100332.81;5037106;28;20544;-81
2021/01/30 00:32:33;;;;;;;9.20;4.63;;;;;;;2.32;87.66;100333.38;5039196;28;20068;-82
2021/01/30 00:35:01;;;;;;;11.30;5.38;;;;;;;2.33;88.77;100340.19;5035560;28;20025;-82
2021/01/30 00:37:26;;;;;;;12.27;5.27;;;;;;;2.26;88.76;100348.28;5036337;28;20084;-81
2021/01/30 00:39:55;;;;;;;12.65;5.10;;;;;;;2.29;88.60;100349.31;5037937;28;20025;-84
2021/01/30 00:42:23;;;;;;;13.37;5.73;;;;;;;2.25;88.65;100346.53;5038079;28;20021;-82
2021/01/30 00:44:50;;;;;;;13.43;5.63;;;;;;;2.26;88.71;100344.06;5035686;28;20029;-82
2021/01/30 00:47:15;;;;;;;8.67;4.43;;;;;;;2.33;87.93;100342.72;5038855;28;20035;-83
2021/01/30 00:49:44;;;;;;;10.68;4.95;;;;;;;2.22;88.03;100337.13;5037508;28;20089;-83
2021/01/30 00:52:15;;;;;;;13.23;5.00;;;;;;;2.22;87.40;100342.19;5038489;28;20025;-82
2021/01/30 00:54:46;;;;;;;13.60;5.30;;;;;;;2.19;87.96;100344.56;5038745;28;20491;-84
2021/01/30 00:57:11;;;;;;;17.13;6.43;;;;;;;2.21;88.79;100335.38;5035688;28;20021;-82
2021/01/30 00:59:37;;;;;;;11.68;5.30;;;;;;;2.19;88.57;100334.44;5037128;28;20036;-83
2021/01/30 01:02:06;;;;;;;9.63;4.22;;;;;;;2.04;85.42;100337.09;5037649;28;20479;-81
2021/01/30 01:04:31;;;;;;;10.87;4.30;;;;;;;2.02;85.40;100345.44;5038204;28;20586;-80
2021/01/30 01:06:56;;;;;;;15.05;5.07;;;;;;;2.03;87.22;100342.97;5040222;28;20032;-81
2021/01/30 01:09:26;;;;;;;6.20;3.42;;;;;;;2.00;86.16;100347.88;5043368;28;20025;-82
2021/01/30 01:11:52;;;;;;;9.13;3.77;;;;;;;1.99;85.85;100350.34;5041953;28;20025;-84
2021/01/30 01:14:23;;;;;;;9.57;3.47;;;;;;;1.97;84.68;100349.41;5040723;28;20025;-82
2021/01/30 01:16:49;;;;;;;9.43;3.67;;;;;;;1.84;84.03;100351.28;5038387;28;20037;-82
2021/01/30 01:19:15;;;;;;;9.70;3.40;;;;;;;1.80;85.11;100346.88;5040934;28;20059;-84
2021/01/30 01:21:48;;;;;;;10.47;3.73;;;;;;;1.70;85.06;100353.94;5039554;28;20017;-80
2021/01/30 01:24:15;;;;;;;6.53;3.37;;;;;;;1.64;84.40;100357.03;5038294;28;20018;-80
2021/01/30 01:26:49;;;;;;;9.27;3.57;;;;;;;1.63;85.31;100362.88;5035948;28;20116;-81
2021/01/30 01:29:18;;;;;;;7.57;3.77;;;;;;;1.63;85.75;100356.94;5036655;28;20026;-82
2021/01/30 01:31:50;;;;;;;8.43;3.73;;;;;;;1.50;83.37;100351.25;5037294;28;20025;-81
2021/01/30 01:34:20;;;;;;;9.03;3.33;;;;;;;1.44;84.13;100356.00;5036254;28;20483;-83
2021/01/30 01:36:52;;;;;;;7.67;3.90;;;;;;;1.43;84.70;100351.72;5036716;28;20052;-83
2021/01/30 01:39:18;;;;;;;10.47;4.23;;;;;;;1.43;85.66;100359.31;5036215;28;20033;-82
2021/01/30 01:41:43;;;;;;;10.52;3.78;;;;;;;1.45;85.36;100367.84;5035851;28;20025;-84
2021/01/30 01:44:11;;;;;;;7.40;4.00;;;;;;;1.47;85.88;100385.66;5036041;28;20505;-82
2021/01/30 01:46:39;;;;;;;10.87;4.20;;;;;;;1.45;84.55;100392.28;5036261;28;20033;-80
2021/01/30 01:49:20;;;;;;;6.67;4.00;;;;;;;1.46;84.74;100389.84;5038195;28;20033;-80
2021/01/30 01:51:59;;;;;;;11.20;4.03;;;;;;;1.44;84.36;100385.50;5036209;28;20048;-79
2021/01/30 01:54:26;;;;;;;9.63;4.67;;;;;;;1.43;84.36;100384.63;5035944;28;20025;-79
2021/01/30 01:57:06;;;;;;;8.57;4.60;;;;;;;1.41;84.72;100380.28;5036765;28;20033;-80
2021/01/30 01:59:31;;;;;;;10.07;4.90;;;;;;;1.31;83.33;100385.66;5036056;28;20467;-79
2021/01/30 02:01:57;;;;;;;8.85;5.05;;;;;;;1.36;84.72;100396.88;5034669;28;20031;-82
2021/01/30 02:04:23;;;;;;;8.10;5.40;;;;;;;1.38;84.92;100396.16;5034674;28;20108;-79
2021/01/30 02:06:49;;;;;;;11.67;5.30;;;;;;;1.25;82.42;100393.75;5036535;28;20029;-81
2021/01/30 02:09:22;;;;;;;8.53;4.90;;;;;;;1.28;83.92;100398.09;5034462;28;20024;-80
2021/01/30 02:11:59;;;;;;;9.27;5.13;;;;;;;1.14;82.64;100398.25;5033620;28;20116;-80
2021/01/30 02:14:26;;;;;;;9.77;6.17;;;;;;;1.12;83.88;100397.31;5036613;28;20442;-82
2021/01/30 02:17:03;;;;;;;8.23;6.07;;;;;;;1.13;84.14;100399.03;5034888;28;20025;-81
2021/01/30 02:19:58;;;;;;;11.23;6.67;;;;;;;1.12;84.87;100397.31;5035507;28;20029;-82
2021/01/30 02:22:32;;;;;;;9.13;6.23;;;;;;;1.06;84.03;100396.97;5036810;28;20468;-80
2021/01/30 02:25:14;;;;;;;10.03;6.53;;;;;;;1.03;83.56;100391.75;5036960;28;20052;-81
2021/01/30 02:28:02;;;;;;;9.20;5.43;;;;;;;0.97;82.61;100396.44;5034684;28;20035;-80
2021/01/30 02:30:46;;;;;;;12.03;6.73;;;;;;;0.95;83.47;100403.09;5034050;28;20021;-79
2021/01/30 02:33:28;;;;;;;14.07;6.70;;;;;;;0.87;83.24;100399.28;5036088;28;20051;-80
2021/01/30 02:36:05;;;;;;;8.47;6.47;;;;;;;0.83;83.40;100393.19;5033501;28;20550;-79
2021/01/30 02:38:36;;;;;;;11.43;7.17;;;;;;;0.87;84.45;100394.22;5033738;28;20124;-81
2021/01/30 02:41:10;;;;;;;13.17;7.23;;;;;;;0.88;85.08;100393.44;5036053;28;20052;-80
2021/01/30 02:43:42;;;;;;;12.17;7.37;;;;;;;0.80;84.04;100387.97;5032554;28;20029;-81
2021/01/30 02:46:13;;;;;;;12.30;6.93;;;;;;;0.82;84.15;100393.09;5032651;28;20021;-81
2021/01/30 02:48:43;;;;;;;10.87;7.07;;;;;;;0.83;84.00;100398.25;5035689;28;20028;-81
2021/01/30 02:51:12;;;;;;;10.70;6.70;;;;;;;0.83;82.97;100399.91;5034251;28;20075;-80
2021/01/30 02:53:45;;;;;;;10.73;6.17;;;;;;;0.79;82.58;100400.50;5035544;28;20021;-81
2021/01/30 02:56:12;;;;;;;10.30;5.70;;;;;;;0.75;82.63;100398.59;5034872;28;20029;-81
2021/01/30 02:58:40;;;;;;;;;;;;;;;0.69;82.70;100393.22;5035880;28;20034;-82
2021/01/30 03:01:05;;;;;;;8.60;5.73;;;;;;;0.69;81.74;100403.34;5034506;28;19921;-81
2021/01/30 03:03:32;;;;;;;8.82;6.05;;;;;;;0.71;82.75;100411.88;5037668;28;20024;-83
2021/01/30 03:06:03;;;;;;;;;;;;;;;0.71;83.42;100406.81;5036237;28;20025;-82
2021/01/30 03:08:56;;;;;;;9.47;6.57;;;;;;;0.67;83.40;100404.91;5033040;28;19920;-82
2021/01/30 03:11:29;;;;;;;9.73;6.03;;;;;;;0.59;81.80;100402.78;5033419;28;20036;-81
2021/01/30 03:14:12;;;;;;;11.67;6.33;;;;;;;0.53;81.81;100397.41;5037538;28;20095;-81
2021/01/30 03:16:40;;;;;;;11.13;7.03;;;;;;;0.55;83.13;100400.88;5033512;28;20546;-82
2021/01/30 03:19:18;;;;;;;9.67;5.90;;;;;;;0.48;80.80;100398.81;5031401;28;20115;-82
2021/01/30 03:21:46;;;;;;;9.87;7.10;;;;;;;0.44;82.24;100396.91;5037167;28;20029;-80
2021/01/30 03:24:12;;;;;;;12.57;7.80;;;;;;;0.47;84.38;100391.13;5035643;28;20143;-84
2021/01/30 03:26:41;;;;;;;10.93;7.65;;;;;;;0.41;83.10;100385.75;5033877;28;20041;-82
2021/01/30 03:29:06;;;;;;;10.10;7.40;;;;;;;0.32;82.15;100393.66;5032770;28;20029;-80
2021/01/30 03:31:32;;;;;;;12.45;8.32;;;;;;;0.30;83.11;100392.69;5034755;28;20029;-82
2021/01/30 03:33:57;;;;;;;13.35;8.80;;;;;;;0.38;84.33;100395.69;5033995;28;20471;-81
2021/01/30 03:36:22;;;;;;;12.65;8.95;;;;;;;0.34;83.87;100404.75;5033632;28;20028;-80
2021/01/30 03:38:47;;;;;;;13.35;8.30;;;;;;;0.35;82.67;100398.91;5032727;28;20017;-80
2021/01/30 03:41:13;;;;;;;12.57;8.57;;;;;;;0.32;82.05;100403.75;5033198;28;20029;-80
2021/01/30 03:43:38;;;;;;;12.55;8.93;;;;;;;0.24;80.84;100394.88;5032227;28;20272;-81
2021/01/30 03:46:04;;;;;;;15.05;9.63;;;;;;;0.31;83.20;100391.91;5034304;28;20100;-82
2021/01/30 03:48:34;;;;;;;12.38;8.63;;;;;;;0.29;82.50;100386.78;5034431;28;20091;-81
2021/01/30 03:51:00;;;;;;;12.80;9.13;;;;;;;0.26;82.20;100384.06;5032251;28;20487;-80
2021/01/30 03:53:25;;;;;;;17.83;10.02;;;;;;;0.24;82.44;100388.16;5034153;28;20120;-82
2021/01/30 03:55:50;;;;;;;15.40;10.32;;;;;;;0.16;82.79;100384.34;5032995;28;20458;-79
2021/01/30 03:58:16;;;;;;;15.00;10.40;;;;;;;0.19;83.54;100376.06;5032675;28;20022;-82
2021/01/30 04:00:41;;;;;;;13.07;9.50;;;;;;;0.18;82.77;100385.28;5032204;28;20025;-80
2021/01/30 04:03:06;;;;;;;12.70;9.07;;;;;;;0.18;82.54;100382.78;5056051;23;20080;-79
2021/01/30 04:05:32;;;;;;;14.17;10.27;;;;;;;0.21;82.29;100390.53;5060786;28;20028;-79
2021/01/30 04:07:59;;;;;;;15.33;10.30;;;;;;;0.25;83.37;100394.09;5062098;28;20766;-79
2021/01/30 04:10:29;;;;;;;13.80;9.60;;;;;;;0.25;81.71;100384.00;5061088;28;20115;-78
2021/01/30 04:12:57;;;;;;;14.10;9.53;;;;;;;0.25;82.31;100384.00;5057396;28;20025;-80
2021/01/30 04:15:28;;;;;;;13.60;9.63;;;;;;;0.19;82.89;100384.50;5055608;28;20433;-80
2021/01/30 04:17:54;;;;;;;14.87;10.43;;;;;;;0.17;83.12;100377.63;5056227;28;20035;-79
2021/01/30 04:20:19;;;;;;;16.90;10.85;;;;;;;0.13;82.82;100379.13;5055998;28;20491;-78
2021/01/30 04:22:45;;;;;;;17.00;12.27;;;;;;;0.10;84.40;100378.06;5053749;28;20063;-79
2021/01/30 04:25:13;;;;;;;18.60;11.95;;;;;;;0.09;84.74;100379.72;5057998;28;20471;-79
2021/01/30 04:27:38;;;;;;;18.33;12.37;;;;;;;0.13;84.35;100374.06;5055944;28;20465;-79
2021/01/30 04:30:05;;;;;;;17.05;11.55;;;;;;;0.09;83.45;100369.63;5053136;28;20025;-79
2021/01/30 04:32:31;;;;;;;20.10;12.60;;;;;;;0.06;83.81;100377.03;5056616;28;20036;-78
2021/01/30 04:34:56;;;;;;;20.52;13.15;;;;;;;0.04;84.07;100382.78;5055265;28;20029;-79
2021/01/30 04:37:21;;;;;;;16.58;12.30;;;;;;;0.04;83.73;100387.81;5053872;28;20033;-78
2021/01/30 04:39:46;;;;;;;19.00;13.35;;;;;;;-0.01;83.88;100379.97;5037309;28;20386;-79
2021/01/30 04:42:21;;;;;;;22.98;14.23;;;;;;;-0.02;83.69;100384.13;5055064;28;20025;-79
2021/01/30 04:44:49;;;;;;;21.03;12.90;;;;;;;-0.04;84.61;100380.66;5053938;28;20060;-80
2021/01/30 04:47:32;;;;;;;20.83;13.03;;;;;;;-0.05;84.12;100376.38;5058044;28;20021;-79
2021/01/30 04:50:07;;;;;;;19.97;14.30;;;;;;;-0.03;84.40;100373.94;5058842;28;20036;-80
2021/01/30 04:52:56;;;;;;;19.53;13.10;;;;;;;0.01;84.30;100370.84;5055895;28;20032;-79
2021/01/30 04:55:47;;;;;;;17.63;11.87;;;;;;;-0.03;84.40;100362.19;5060055;28;20055;-79
2021/01/30 04:58:36;;;;;;;17.87;12.70;;;;;;;-0.02;84.11;100358.00;5058114;28;20020;-80
2021/01/30 05:01:18;;;;;;;17.17;11.57;;;;;;;-0.09;84.18;100356.81;5058386;28;20036;-80
2021/01/30 05:04:15;;;;;;;19.63;11.67;;;;;;;-0.09;84.40;100360.97;5056839;28;20021;-80
2021/01/30 05:06:44;;;;;;;;;;;;;;;-0.09;84.39;100346.69;5060826;28;20025;-80
2021/01/30 05:09:17;;;;;;;17.43;11.53;;;;;;;-0.04;84.15;100352.88;5058952;28;19959;-80
2021/01/30 05:12:00;;;;;;;15.87;10.53;;;;;;;-0.10;83.27;100347.47;5058441;28;20028;-79
2021/01/30 05:14:32;;;;;;;17.93;11.60;;;;;;;-0.09;84.40;100358.44;5057257;28;20035;-79
2021/01/30 05:17:30;;;;;;;18.33;11.77;;;;;;;-0.08;84.92;100345.91;5060165;28;20410;-80
2021/01/30 05:20:02;;;;;;;15.93;10.67;;;;;;;-0.04;84.42;100346.97;5061333;28;20037;-80
2021/01/30 05:22:39;;;;;;;16.17;9.13;;;;;;;-0.04;84.24;100347.84;5055059;28;20489;-79
2021/01/30 05:25:08;;;;;;;13.30;8.80;;;;;;;-0.08;83.70;100353.50;5056644;28;20410;-79
2021/01/30 05:28:11;;;;;;;11.57;8.20;;;;;;;-0.10;83.38;100354.19;5058242;28;20025;-80
2021/01/30 05:30:58;;;;;;;10.33;7.17;;;;;;;-0.15;82.80;100348.88;5054792;28;20033;-80
2021/01/30 05:33:47;;;;;;;12.32;8.13;;;;;;;-0.15;82.64;100348.88;5055999;28;20116;-80
2021/01/30 05:36:21;;;;;;;10.57;7.73;;;;;;;-0.17;83.49;100347.03;5054583;28;20500;-78
2021/01/30 05:39:03;;;;;;;9.70;7.30;;;;;;;-0.12;83.43;100355.75;5056711;28;20064;-79
2021/01/30 05:41:35;;;;;;;10.60;7.50;;;;;;;-0.14;83.25;100347.22;5056916;28;20021;-78
2021/01/30 05:44:10;;;;;;;11.87;7.33;;;;;;;-0.19;83.22;100354.53;5056723;28;20049;-79
2021/01/30 05:46:38;;;;;;;10.48;7.03;;;;;;;-0.20;83.07;100350.28;5056441;28;20035;-79
2021/01/30 05:49:09;;;;;;;10.63;7.00;;;;;;;-0.19;83.61;100346.09;5055733;28;20032;-79
2021/01/30 05:52:04;;;;;;;11.00;7.07;;;;;;;-0.23;82.49;100340.00;5055133;28;20041;-80
2021/01/30 05:54:29;;;;;;;10.30;7.13;;;;;;;-0.23;82.88;100344.16;5052127;28;20033;-78
2021/01/30 05:56:55;;;;;;;10.05;7.57;;;;;;;-0.24;84.13;100350.88;5057359;28;20029;-79
2021/01/30 05:59:25;;;;;;;10.20;6.60;;;;;;;-0.26;82.79;100351.56;5056589;28;20040;-79
2021/01/30 06:02:08;;;;;;;8.13;6.10;;;;;;;-0.31;82.92;100343.72;5056526;28;20021;-79
2021/01/30 06:04:33;;;;;;;10.17;6.57;;;;;;;-0.28;83.15;100343.91;5053402;28;20021;-79
2021/01/30 06:06:58;;;;;;;8.13;5.82;;;;;;;-0.32;83.34;100352.09;5054822;28;20020;-80
2021/01/30 06:09:41;;;;;;;8.45;6.20;;;;;;;-0.33;82.94;100348.69;5054140;28;20525;-80
2021/01/30 06:12:33;;;;;;;8.93;6.43;;;;;;;-0.34;83.21;100353.63;5053247;28;20118;-79
2021/01/30 06:15:20;;;;;;;8.67;6.33;;;;;;;-0.35;82.98;100357.78;5051493;28;20489;-79
2021/01/30 06:17:46;;;;;;;12.57;7.97;;;;;;;-0.34;84.11;100348.56;5054531;28;20482;-80
2021/01/30 06:20:26;;;;;;;10.75;6.75;;;;;;;-0.34;84.94;100343.53;5052568;28;20036;-79
2021/01/30 06:23:12;;;;;;;9.33;6.93;;;;;;;-0.35;83.50;100344.31;5054049;28;20017;-80
2021/01/30 06:25:44;;;;;;;8.80;6.27;;;;;;;-0.35;83.94;100344.31;5053507;28;20032;-80
2021/01/30 06:28:21;;;;;;;10.00;5.80;;;;;;;-0.38;83.31;100350.03;5051349;28;20090;-80
2021/01/30 06:30:47;;;;;;;11.40;6.97;;;;;;;-0.39;83.45;100344.91;5054627;28;20028;-80
2021/01/30 06:33:31;;;;;;;9.50;6.32;;;;;;;-0.40;84.49;100350.75;5053994;28;20028;-80
2021/01/30 06:36:13;;;;;;;10.83;5.77;;;;;;;-0.40;83.67;100348.22;5053163;28;20028;-81
2021/01/30 06:38:42;;;;;;;10.27;6.70;;;;;;;-0.45;83.91;100340.38;5055134;28;20371;-80
2021/01/30 06:41:18;;;;;;;8.57;5.93;;;;;;;-0.43;82.71;100340.47;5054128;28;20498;-81
2021/01/30 06:43:46;;;;;;;9.80;6.05;;;;;;;-0.46;83.28;100340.28;5051014;28;20027;-79
2021/01/30 06:46:19;;;;;;;7.67;5.37;;;;;;;-0.51;83.62;100341.69;5052371;28;20399;-79
2021/01/30 06:48:44;;;;;;;9.40;6.43;;;;;;;-0.51;83.91;100334.09;5052237;28;20021;-78
2021/01/30 06:51:39;;;;;;;9.77;6.13;;;;;;;-0.55;84.46;100338.09;5052321;28;20033;-79
2021/01/30 06:54:26;;;;;;;9.70;6.17;;;;;;;-0.51;84.78;100332.44;5042027;28;20041;-78
2021/01/30 06:57:10;;;;;;;11.43;6.68;;;;;;;-0.53;85.23;100335.66;5051071;28;20021;-79
2021/01/30 06:59:48;;;;;;;10.17;6.80;;;;;;;-0.56;85.19;100335.50;5051554;28;20028;-78
2021/01/30 07:02:19;;;;;;;10.70;6.70;;;;;;;-0.56;85.48;100332.97;5051443;28;20112;-79
2021/01/30 07:04:57;;;;;;;11.20;6.97;;;;;;;-0.59;85.02;100321.03;5052402;28;20094;-78
2021/01/30 07:07:26;;;;;;;10.23;6.23;;;;;;;-0.59;85.45;100330.28;5051339;28;20040;-77
2021/01/30 07:09:54;;;;;;;12.50;7.07;;;;;;;-0.58;85.30;100324.44;5050487;28;20021;-78
2021/01/30 07:12:31;;;;;;;12.20;7.23;;;;;;;-0.63;85.86;100321.66;5051721;28;20033;-79
2021/01/30 07:15:12;;;;;;;13.27;7.45;;;;;;;-0.61;85.79;100339.41;5051275;28;20112;-79
2021/01/30 07:17:54;;;;;;;12.30;7.27;;;;;;;-0.60;85.91;100353.75;5053493;28;20029;-77
2021/01/30 07:20:32;;;;;;;12.13;6.67;;;;;;;-0.63;84.86;100352.78;5052272;28;20390;-81
2021/01/30 07:23:21;;;;;;;13.90;7.80;;;;;;;-0.60;85.72;100353.75;5051481;28;20017;-79
2021/01/30 07:25:49;;;;;;;9.73;6.13;;;;;;;-0.61;86.18;100352.00;5053800;28;20043;-80
2021/01/30 07:28:24;;;;;;;9.90;6.30;;;;;;;-0.63;84.27;100331.75;5052893;28;20033;-80
2021/01/30 07:30:52;;;;;;;10.30;6.43;;;;;;;-0.64;83.83;100333.38;5051092;28;20467;-80
2021/01/30 07:33:25;;;;;;;14.13;8.30;;;;;;;-0.63;84.18;100335.13;5052373;28;20041;-82
2021/01/30 07:36:04;;;;;;;10.37;7.13;;;;;;;-0.61;84.85;100324.25;5053618;28;20041;-80
2021/01/30 07:38:42;;;;;;;10.83;6.60;;;;;;;-0.65;84.84;100323.22;5052510;28;20025;-80
2021/01/30 07:41:26;;;;;;;11.40;6.60;;;;;;;-0.62;85.28;100325.91;5052133;28;20033;-79
2021/01/30 07:44:07;;;;;;;10.47;6.77;;;;;;;-0.64;84.23;100323.31;5051370;28;20032;-81
2021/01/30 07:46:40;;;;;;;9.53;6.50;;;;;;;-0.63;84.74;100320.00;5050903;28;20035;-79
2021/01/30 07:49:17;;;;;;;11.10;7.20;;;;;;;-0.63;84.52;100321.66;5049936;28;20517;-77
2021/01/30 07:52:05;;;;;;;12.73;7.65;;;;;;;-0.63;83.51;100337.66;5052958;28;20032;-80
2021/01/30 07:54:31;;;;;;;9.47;6.27;;;;;;;-0.60;84.38;100320.97;5050014;28;20020;-81
2021/01/30 07:57:11;;;;;;;8.40;5.93;;;;;;;-0.57;83.85;100313.56;5051860;28;20116;-80
2021/01/30 07:59:56;;;;;;;8.40;5.63;;;;;;;-0.57;84.40;100329.56;5049803;28;20037;-80
2021/01/30 08:02:51;;;;;;;12.60;7.87;;;;;;;-0.53;84.22;100328.09;5050942;28;20170;-81
2021/01/30 08:05:36;;;;;;;19.07;9.87;;;;;;;-0.53;85.33;100316.34;5053707;28;20071;-81
2021/01/30 08:08:32;;;;;;;8.20;5.50;;;;;;;-0.50;84.04;100313.13;5052502;28;20032;-80
2021/01/30 08:11:10;;;;;;;9.50;5.87;;;;;;;-0.52;83.69;100313.06;5052035;28;20029;-81
2021/01/30 08:13:50;;;;;;;9.83;6.00;;;;;;;-0.50;83.95;100325.75;5049176;28;20124;-79
2021/01/30 08:16:25;;;;;;;10.23;6.60;;;;;;;-0.45;84.33;100324.38;5052030;28;20482;-79
2021/01/30 08:18:53;;;;;;;12.03;6.70;;;;;;;-0.43;83.93;100311.06;5051800;28;20402;-80
2021/01/30 08:21:40;;;;;;;15.53;8.93;;;;;;;-0.36;85.05;100319.84;5053407;28;20021;-79
2021/01/30 08:24:17;;;;;;;9.80;6.75;;;;;;;-0.37;84.85;100313.94;5054339;28;20032;-79
2021/01/30 08:26:59;;;;;;;10.93;5.83;;;;;;;-0.37;83.96;100302.97;5055533;28;20036;-78
2021/01/30 08:29:34;;;;;;;10.17;6.07;;;;;;;-0.35;83.21;100303.94;5056726;28;20525;-80
2021/01/30 08:32:25;;;;;;;12.10;7.00;;;;;;;-0.32;83.72;100304.13;5053194;28;20040;-79
2021/01/30 08:34:56;;;;;;;11.50;7.37;;;;;;;-0.32;82.95;100299.09;5057264;28;20021;-80
2021/01/30 08:37:27;;;;;;;11.77;7.43;;;;;;;-0.29;83.99;100311.88;5057501;28;20506;-78
2021/01/30 08:40:01;;;;;;;15.07;8.97;;;;;;;-0.28;83.07;100328.78;5056785;28;20064;-79
2021/01/30 08:42:29;;;;;;;15.27;8.67;;;;;;;-0.31;81.93;100318.50;5054558;28;20029;-79
2021/01/30 08:45:00;;;;;;;10.53;6.00;;;;;;;-0.30;83.00;100305.09;5058194;28;20024;-79
2021/01/30 08:47:30;;;;;;;12.33;6.70;;;;;;;-0.28;82.68;100298.47;5057322;28;20074;-80
2021/01/30 08:50:14;;;;;;;11.80;6.57;;;;;;;-0.28;82.50;100308.56;5055418;28;20393;-81
2021/01/30 08:52:50;;;;;;;13.73;8.33;;;;;;;-0.23;83.87;100301.28;5055223;28;20069;-80
2021/01/30 08:55:48;;;;;;;9.77;6.03;;;;;;;-0.24;81.95;100310.50;5055499;28;20056;-81
2021/01/30 08:58:32;;;;;;;7.50;4.83;;;;;;;-0.25;81.65;100301.19;5053385;28;20017;-80
2021/01/30 09:01:08;;;;;;;10.57;5.63;;;;;;;-0.27;81.47;100295.19;5053435;28;20029;-79
2021/01/30 09:03:55;;;;;;;9.57;6.75;;;;;;;-0.24;81.39;100285.25;5056558;28;20017;-79
2021/01/30 09:06:39;;;;;;;9.10;5.18;;;;;;;-0.20;81.34;100302.31;5056370;28;20441;-80
2021/01/30 09:09:13;;;;;;;8.43;5.43;;;;;;;-0.22;80.54;100311.44;5053938;28;20486;-79
2021/01/30 09:11:43;;;;;;;10.37;5.23;;;;;;;-0.21;81.05;100290.47;5051460;28;20033;-78
2021/01/30 09:14:10;;;;;;;11.47;6.70;;;;;;;-0.14;82.13;100300.13;5055157;28;20033;-80
2021/01/30 09:16:44;;;;;;;8.90;5.67;;;;;;;-0.13;81.77;100289.25;5051825;28;20025;-80
2021/01/30 09:19:24;;;;;;;7.73;5.10;;;;;;;-0.14;81.28;100294.22;5055263;28;20039;-77
2021/01/30 09:21:59;;;;;;;9.33;6.00;;;;;;;-0.12;82.39;100293.50;5051496;28;20091;-78
2021/01/30 09:24:49;;;;;;;13.67;6.87;;;;;;;-0.11;81.93;100310.41;5052980;28;20482;-78
2021/01/30 09:27:22;;;;;;;8.80;5.70;;;;;;;-0.10;82.12;100309.63;5049911;28;20393;-80
2021/01/30 09:29:50;;;;;;;10.07;6.77;;;;;;;-0.07;83.04;100299.69;5051807;28;20043;-78
2021/01/30 09:32:25;;;;;;;10.20;6.03;;;;;;;-0.10;82.15;100296.13;5053467;28;20031;-81
2021/01/30 09:35:03;;;;;;;12.37;5.37;;;;;;;-0.13;82.18;100306.91;5052977;28;20063;-80
2021/01/30 09:37:37;;;;;;;11.10;6.00;;;;;;;-0.16;82.03;100303.34;5052899;28;20065;-80
2021/01/30 09:40:07;;;;;;;10.93;5.83;;;;;;;-0.18;82.90;100300.75;5053916;28;20094;-79
2021/01/30 09:42:32;;;;;;;10.93;6.90;;;;;;;-0.07;83.80;100301.34;5052073;28;20036;-79
2021/01/30 09:45:10;;;;;;;10.77;6.68;;;;;;;-0.10;82.86;100314.66;5053174;28;20124;-78
2021/01/30 09:47:42;;;;;;;10.63;6.40;;;;;;;-0.12;82.64;100288.47;5052393;28;20091;-78
2021/01/30 09:50:12;;;;;;;7.53;4.90;;;;;;;-0.17;82.52;100296.56;5053233;28;20283;-79
2021/01/30 09:52:46;;;;;;;9.57;5.73;;;;;;;-0.09;82.98;100305.44;5050668;28;20021;-79
2021/01/30 09:55:12;;;;;;;10.27;5.87;;;;;;;-0.10;82.78;100284.38;5053591;28;20029;-79
2021/01/30 09:57:42;;;;;;;14.40;8.85;;;;;;;-0.07;83.84;100304.75;5053319;28;20509;-77
2021/01/30 10:00:29;;;;;;;9.83;6.57;;;;;;;-0.04;82.74;100294.81;5052481;28;20518;-80
2021/01/30 10:05:21;;;;;;;13.93;6.43;;;;;;;-0.03;82.35;100290.63;5086319;22;19929;-85
2021/01/30 10:07:47;;;;;;;8.15;5.20;;;;;;;0.05;82.08;100298.66;5063563;28;20044;-81
2021/01/30 10:10:30;;;;;;;7.90;5.13;;;;;;;0.12;81.36;100290.66;5061538;28;20510;-82
2021/01/30 10:12:57;;;;;;;10.03;6.30;;;;;;;0.22;81.67;100287.84;5082926;28;20025;-82
2021/01/30 10:15:44;;;;;;;8.67;5.20;;;;;;;0.31;80.91;100290.88;5041292;28;20036;-81
2021/01/30 10:18:19;;;;;;;9.65;5.93;;;;;;;0.30;80.37;100292.53;5045217;28;20386;-81
2021/01/30 10:20:48;;;;;;;8.57;6.13;;;;;;;0.29;81.18;100287.38;5052101;28;20566;-81
2021/01/30 10:23:27;;;;;;;7.70;5.70;;;;;;;0.24;79.94;100302.28;5042692;28;20022;-83
2021/01/30 10:26:06;;;;;;;10.97;5.83;;;;;;;0.20;80.31;100297.00;5042270;28;20025;-83
2021/01/30 10:28:44;;;;;;;9.70;5.57;;;;;;;0.20;79.70;100300.38;5058080;28;20407;-81
2021/01/30 10:31:11;;;;;;;11.00;6.43;;;;;;;0.24;80.21;100288.78;5059504;28;20025;-81
2021/01/30 10:33:44;;;;;;;9.93;6.03;;;;;;;0.29;80.11;100300.88;5039020;28;20044;-81
2021/01/30 10:36:12;;;;;;;8.47;5.47;;;;;;;0.24;79.36;100309.88;5043977;28;20028;-85
2021/01/30 10:38:38;;;;;;;9.13;5.77;;;;;;;0.32;80.38;100295.13;5045460;28;20025;-82
2021/01/30 10:41:06;;;;;;;10.52;6.40;;;;;;;0.29;80.25;100293.31;5040214;28;20017;-84
2021/01/30 10:43:37;;;;;;;12.20;6.87;;;;;;;0.35;81.13;100292.81;5045577;28;20030;-82
2021/01/30 10:46:13;;;;;;;11.60;6.13;;;;;;;0.45;81.46;100297.56;5041322;28;20025;-82
2021/01/30 10:48:40;;;;;;;9.70;5.93;;;;;;;0.33;80.04;100289.31;5047089;28;20048;-81
2021/01/30 10:51:10;;;;;;;12.17;6.87;;;;;;;0.36;80.86;100276.84;5041738;28;20036;-81
2021/01/30 10:53:37;;;;;;;11.43;6.77;;;;;;;0.36;81.32;100286.97;5034121;28;20017;-82
2021/01/30 10:56:28;;;;;;;8.90;5.53;;;;;;;0.35;80.34;100282.69;5038707;28;20029;-81
2021/01/30 10:58:55;;;;;;;9.43;6.27;;;;;;;0.37;80.49;100277.72;5043893;28;20048;-83
2021/01/30 11:01:20;;;;;;;7.80;5.10;;;;;;;0.34;80.01;100273.38;5037312;28;20490;-82
2021/01/30 11:03:55;;;;;;;10.40;6.57;;;;;;;0.38;80.65;100271.88;5041144;28;20064;-83
2021/01/30 11:06:29;;;;;;;10.53;6.47;;;;;;;0.39;79.32;100256.81;5039027;28;20727;-81
2021/01/30 11:09:10;;;;;;;11.00;7.37;;;;;;;0.46;79.80;100274.03;5040208;28;20033;-79
2021/01/30 11:11:35;;;;;;;10.57;6.27;;;;;;;0.50;79.64;100257.38;5050646;28;20096;-82
2021/01/30 11:14:01;;;;;;;13.23;7.20;;;;;;;0.57;79.77;100265.38;5043160;28;20052;-79
2021/01/30 11:16:37;;;;;;;9.50;5.53;;;;;;;0.61;79.04;100279.03;5042942;28;20044;-82
2021/01/30 11:19:20;;;;;;;9.93;6.32;;;;;;;0.66;79.12;100272.59;5041001;28;20064;-79
2021/01/30 11:21:46;;;;;;;12.53;6.70;;;;;;;0.62;78.78;100268.13;5036861;28;20017;-78
2021/01/30 11:24:26;;;;;;;11.80;7.73;;;;;;;0.63;79.51;100260.63;5043308;28;20633;-78
2021/01/30 11:26:51;;;;;;;10.77;7.00;;;;;;;0.67;79.47;100265.88;5043657;28;20024;-79
2021/01/30 11:29:41;;;;;;;10.52;6.57;;;;;;;0.66;78.29;100270.06;5040960;28;20507;-80
2021/01/30 11:32:09;;;;;;;10.10;6.17;;;;;;;0.69;79.06;100251.66;5039395;28;20043;-79
2021/01/30 11:34:35;;;;;;;8.17;5.40;;;;;;;0.72;78.39;100246.78;5046465;28;20429;-78
2021/01/30 11:37:00;;;;;;;10.27;6.78;;;;;;;0.70;79.06;100248.34;5045748;28;20064;-79
2021/01/30 11:39:30;;;;;;;10.98;5.63;;;;;;;0.69;77.99;100237.38;5036754;28;20021;-78
2021/01/30 11:41:56;;;;;;;11.90;7.27;;;;;;;0.79;79.67;100243.78;5039715;28;20033;-77
2021/01/30 11:44:22;;;;;;;11.13;7.30;;;;;;;0.88;79.08;100234.13;5038145;28;20032;-77
2021/01/30 11:46:48;;;;;;;12.95;8.13;;;;;;;0.90;79.52;100225.84;5046243;28;20026;-77
2021/01/30 11:49:13;;;;;;;10.68;6.03;;;;;;;0.88;77.56;100216.44;5043804;28;20032;-79
2021/01/30 11:51:38;;;;;;;11.60;6.87;;;;;;;0.87;77.87;100220.63;5044386;28;20108;-77
2021/01/30 11:54:04;;;;;;;10.10;6.50;;;;;;;0.91;78.30;100209.88;5044714;28;20025;-79